createdAt,value
2022-08-08T00:00:50.279Z,99.90
2022-08-08T00:02:56.860Z,99.90
2022-08-08T00:06:06.698Z,99.90
2022-08-08T00:09:18.587Z,99.90
2022-08-08T00:12:30.031Z,99.90
2022-08-08T00:15:57.131Z,99.90
2022-08-08T00:19:17.445Z,99.90
2022-08-08T00:22:26.060Z,99.90
2022-08-08T00:25:46.764Z,99.90
2022-08-08T00:29:02.055Z,99.90
2022-08-08T00:32:35.387Z,99.90
2022-08-08T00:35:50.699Z,99.90
2022-08-08T00:39:36.074Z,99.90
2022-08-08T00:42:58.886Z,99.90
2022-08-08T00:46:56.983Z,99.90
2022-08-08T00:50:53.495Z,99.90
2022-08-08T00:54:34.698Z,99.90
2022-08-08T00:58:36.129Z,99.90
2022-08-08T01:02:01.681Z,99.90
2022-08-08T01:06:01.014Z,99.90
2022-08-08T01:09:48.728Z,99.90
2022-08-08T01:13:43.712Z,99.90
2022-08-08T01:17:51.500Z,99.90
2022-08-08T01:20:58.669Z,99.90
2022-08-08T01:24:50.825Z,99.90
2022-08-08T01:28:15.630Z,99.90
2022-08-08T01:32:14.628Z,99.90
2022-08-08T01:36:02.099Z,99.90
2022-08-08T01:39:28.450Z,99.90
2022-08-08T01:42:48.977Z,99.90
2022-08-08T01:46:02.153Z,99.90
2022-08-08T01:49:31.119Z,99.90
2022-08-08T01:54:05.295Z,99.90
2022-08-08T01:56:34.092Z,99.90
2022-08-08T02:00:13.092Z,99.90
2022-08-08T02:03:50.551Z,99.90
2022-08-08T02:07:06.182Z,99.90
2022-08-08T02:10:44.805Z,99.90
2022-08-08T02:13:56.673Z,99.90
2022-08-08T02:17:20.182Z,99.90
2022-08-08T02:21:01.226Z,99.90
2022-08-08T02:27:42.089Z,99.90
2022-08-08T02:31:43.936Z,99.90
2022-08-08T02:35:10.885Z,99.90
2022-08-08T02:38:53.160Z,99.90
2022-08-08T02:42:38.208Z,99.90
2022-08-08T02:46:05.808Z,99.90
2022-08-08T02:49:50.785Z,99.90
2022-08-08T02:53:09.917Z,99.90
2022-08-08T02:56:53.641Z,99.90
2022-08-08T03:00:50.747Z,99.90
2022-08-08T03:05:03.637Z,99.90
2022-08-08T03:08:41.601Z,99.90
2022-08-08T03:12:36.402Z,99.90
2022-08-08T03:16:09.047Z,99.90
2022-08-08T03:19:36.630Z,99.90
2022-08-08T03:22:56.030Z,99.90
2022-08-08T03:26:04.296Z,99.90
2022-08-08T03:29:16.843Z,99.90
2022-08-08T03:32:47.511Z,99.90
2022-08-08T03:36:01.623Z,99.90
2022-08-08T03:42:30.156Z,99.90
2022-08-08T03:46:06.369Z,99.90
2022-08-08T03:49:28.002Z,99.90
2022-08-08T03:52:26.769Z,99.90
2022-08-08T03:55:57.812Z,99.90
2022-08-08T03:58:57.096Z,99.90
2022-08-08T04:02:31.804Z,99.90
2022-08-08T04:05:29.202Z,99.90
2022-08-08T04:08:38.607Z,99.90
2022-08-08T04:11:58.676Z,99.90
2022-08-08T04:15:13.676Z,99.90
2022-08-08T04:18:21.688Z,99.90
2022-08-08T04:21:27.104Z,99.90
2022-08-08T04:24:35.161Z,99.90
2022-08-08T04:31:09.416Z,99.90
2022-08-08T04:34:13.237Z,99.90
2022-08-08T04:37:16.997Z,99.90
2022-08-08T04:40:24.328Z,99.90
2022-08-08T04:43:46.123Z,99.90
2022-08-08T04:46:58.036Z,99.90
2022-08-08T04:50:04.885Z,99.90
2022-08-08T04:53:14.328Z,99.90
2022-08-08T04:56:36.864Z,99.90
2022-08-08T04:59:44.264Z,99.90
2022-08-08T05:02:48.246Z,99.90
2022-08-08T05:05:57.713Z,99.90
2022-08-08T05:09:05.940Z,99.90
2022-08-08T05:12:20.500Z,99.90
2022-08-08T05:18:52.753Z,99.90
2022-08-08T05:21:58.144Z,99.90
2022-08-08T05:25:05.818Z,99.90
2022-08-08T05:28:10.115Z,99.90
2022-08-08T05:31:30.782Z,99.90
2022-08-08T05:34:44.385Z,99.90
2022-08-08T05:37:54.645Z,99.90
2022-08-08T05:41:23.155Z,99.90
2022-08-08T05:44:32.902Z,99.90
2022-08-08T05:47:52.454Z,99.90
2022-08-08T05:51:14.834Z,99.90
2022-08-08T05:54:28.526Z,99.90
2022-08-08T05:58:03.874Z,99.90
2022-08-08T06:01:14.431Z,99.90
2022-08-08T06:04:40.613Z,99.90
2022-08-08T06:08:02.073Z,99.90
2022-08-08T06:11:08.280Z,99.90
2022-08-08T06:14:17.924Z,99.90
2022-08-08T06:17:32.139Z,99.90
2022-08-08T06:20:50.385Z,96.80
2022-08-08T06:24:04.785Z,78.00
2022-08-08T06:27:13.597Z,58.40
2022-08-08T06:30:28.807Z,42.70
2022-08-08T06:34:25.760Z,33.70
2022-08-08T06:37:24.386Z,37.30
2022-08-08T06:40:48.730Z,32.20
2022-08-08T06:44:33.058Z,9.30
2022-08-08T06:47:52.674Z,11.00
2022-08-08T07:00:41.044Z,1.00
2022-08-08T07:04:38.811Z,9.30
2022-08-08T07:07:24.800Z,8.90
2022-08-08T07:10:35.523Z,1.00
2022-08-08T07:14:00.808Z,1.00
2022-08-08T07:17:14.408Z,1.00
2022-08-08T07:20:28.734Z,1.00
2022-08-08T07:24:01.161Z,1.00
2022-08-08T07:37:00.183Z,1.00
2022-08-08T07:52:57.026Z,1.00
2022-08-08T07:56:04.696Z,1.00
2022-08-08T07:59:14.835Z,1.00
2022-08-08T08:02:35.579Z,1.00
2022-08-08T08:09:08.170Z,1.00
2022-08-08T08:12:26.557Z,1.00
2022-08-08T08:15:37.631Z,1.00
2022-08-08T08:18:56.282Z,1.00
2022-08-08T08:31:54.043Z,1.00
2022-08-08T08:41:24.954Z,1.00
2022-08-08T08:47:43.990Z,1.00
2022-08-08T08:50:52.788Z,1.00
2022-08-08T08:54:00.963Z,1.00
2022-08-08T08:57:15.709Z,1.00
2022-08-08T09:00:22.025Z,1.00
2022-08-08T09:03:46.812Z,1.00
2022-08-08T09:06:57.537Z,1.00
2022-08-08T09:10:04.803Z,1.00
2022-08-08T09:13:18.590Z,1.00
2022-08-08T09:16:33.223Z,1.00
2022-08-08T09:22:02.132Z,1.00
2022-08-08T09:23:04.362Z,1.00
2022-08-08T09:26:16.148Z,1.00
2022-08-08T09:29:24.502Z,1.00
2022-08-08T09:32:38.209Z,1.00
2022-08-08T09:35:49.328Z,1.00
2022-08-08T09:39:01.620Z,1.00
2022-08-08T09:42:21.087Z,1.00
2022-08-08T09:45:55.467Z,1.00
2022-08-08T09:48:55.893Z,1.00
2022-08-08T09:52:06.914Z,1.00
2022-08-08T09:55:17.574Z,1.00
2022-08-08T09:58:41.431Z,1.00
2022-08-08T10:02:02.478Z,1.00
2022-08-08T10:05:15.254Z,1.00
2022-08-08T10:08:18.980Z,1.00
2022-08-08T10:12:27.355Z,1.00
2022-08-08T10:14:49.534Z,1.00
2022-08-08T10:18:06.050Z,1.00
2022-08-08T10:21:25.382Z,1.00
2022-08-08T10:24:35.238Z,1.00
2022-08-08T10:27:44.620Z,1.00
2022-08-08T10:31:00.080Z,1.00
2022-08-08T10:34:18.115Z,1.00
2022-08-08T10:37:28.151Z,1.00
2022-08-08T10:40:34.827Z,1.00
2022-08-08T10:43:43.056Z,1.00
2022-08-08T10:46:46.638Z,1.00
2022-08-08T10:50:00.536Z,1.00
2022-08-08T10:53:11.601Z,1.00
2022-08-08T10:56:27.509Z,1.00
2022-08-08T10:59:39.770Z,1.00
2022-08-08T11:02:44.616Z,1.00
2022-08-08T11:05:51.846Z,1.00
2022-08-08T11:09:14.946Z,1.00
2022-08-08T11:12:19.259Z,1.00
2022-08-08T11:15:30.612Z,1.00
2022-08-08T11:18:35.910Z,1.00
2022-08-08T11:21:55.671Z,1.00
2022-08-08T11:25:02.899Z,1.00
2022-08-08T11:28:29.096Z,1.00
2022-08-08T11:31:46.588Z,1.00
2022-08-08T11:35:27.461Z,1.00
2022-08-08T11:38:36.629Z,1.00
2022-08-08T11:41:45.009Z,1.00
2022-08-08T11:44:49.692Z,1.00
2022-08-08T11:48:02.877Z,1.00
2022-08-08T11:51:30.697Z,1.00
2022-08-08T11:54:44.648Z,1.00
2022-08-08T11:57:51.626Z,1.00
2022-08-08T12:00:58.337Z,1.00
2022-08-08T12:04:06.671Z,1.00
2022-08-08T12:07:16.854Z,1.00
2022-08-08T12:10:22.822Z,1.00
2022-08-08T12:13:33.408Z,1.00
2022-08-08T12:16:52.387Z,1.00
2022-08-08T12:19:59.271Z,1.00
2022-08-08T12:23:02.550Z,1.00
2022-08-08T12:26:17.292Z,1.00
2022-08-08T12:29:41.945Z,1.00
2022-08-08T12:32:48.084Z,1.00
2022-08-08T12:35:53.438Z,1.00
2022-08-08T12:38:56.902Z,1.00
2022-08-08T12:42:04.841Z,1.00
2022-08-08T12:45:54.197Z,1.00
2022-08-08T12:48:37.109Z,1.00
2022-08-08T12:51:53.633Z,1.00
2022-08-08T12:55:09.163Z,1.00
2022-08-08T12:58:19.759Z,1.00
2022-08-08T13:01:36.404Z,1.00
2022-08-08T13:04:51.880Z,1.00
2022-08-08T13:08:02.912Z,1.00
2022-08-08T13:11:19.273Z,1.00
2022-08-08T13:14:22.823Z,1.00
2022-08-08T13:18:09.835Z,1.00
2022-08-08T13:20:50.521Z,1.00
2022-08-08T13:23:57.278Z,1.00
2022-08-08T13:27:06.145Z,1.00
2022-08-08T13:30:21.203Z,1.00
2022-08-08T13:33:42.240Z,1.00
2022-08-08T13:36:47.058Z,1.00
2022-08-08T13:39:57.686Z,1.00
2022-08-08T13:43:01.349Z,1.00
2022-08-08T13:46:26.634Z,1.00
2022-08-08T13:50:36.586Z,1.00
2022-08-08T13:52:56.318Z,1.00
2022-08-08T13:56:02.694Z,1.00
2022-08-08T13:59:06.658Z,1.00
2022-08-08T14:02:16.719Z,1.00
2022-08-08T14:05:28.889Z,1.00
2022-08-08T14:08:45.869Z,1.00
2022-08-08T14:11:51.351Z,1.00
2022-08-08T14:14:55.050Z,1.00
2022-08-08T14:18:34.790Z,1.00
2022-08-08T14:21:24.932Z,1.00
2022-08-08T14:24:32.334Z,1.00
2022-08-08T14:27:40.334Z,1.00
2022-08-08T14:30:49.998Z,1.00
2022-08-08T14:33:55.546Z,1.00
2022-08-08T14:36:59.034Z,1.00
2022-08-08T14:40:06.593Z,1.00
2022-08-08T14:43:22.068Z,1.00
2022-08-08T14:46:35.415Z,1.00
2022-08-08T14:50:05.934Z,1.00
2022-08-08T14:53:07.479Z,1.00
2022-08-08T14:56:11.940Z,1.00
2022-08-08T14:59:22.246Z,1.00
2022-08-08T15:03:14.122Z,1.00
2022-08-08T15:06:04.508Z,1.00
2022-08-08T15:09:07.895Z,1.00
2022-08-08T15:12:11.449Z,1.00
2022-08-08T15:15:18.773Z,1.00
2022-08-08T15:18:44.237Z,1.00
2022-08-08T15:21:55.107Z,1.00
2022-08-08T15:25:01.777Z,1.00
2022-08-08T15:28:33.476Z,1.00
2022-08-08T15:32:03.539Z,1.00
2022-08-08T15:35:05.891Z,1.00
2022-08-08T15:38:13.446Z,1.00
2022-08-08T15:41:17.075Z,1.00
2022-08-08T15:44:28.709Z,1.00
2022-08-08T15:47:33.894Z,1.00
2022-08-08T15:50:56.469Z,1.00
2022-08-08T15:54:01.525Z,1.00
2022-08-08T15:57:07.500Z,1.00
2022-08-08T16:00:27.174Z,1.00
2022-08-08T16:03:32.980Z,1.00
2022-08-08T16:06:36.575Z,1.00
2022-08-08T16:13:02.363Z,1.00
2022-08-08T16:13:34.371Z,1.00
2022-08-08T16:16:27.860Z,1.00
2022-08-08T16:19:59.916Z,1.00
2022-08-08T16:22:57.775Z,1.00
2022-08-08T16:26:12.722Z,1.00
2022-08-08T16:29:37.019Z,1.00
2022-08-08T16:32:41.176Z,1.00
2022-08-08T16:35:49.711Z,1.00
2022-08-08T16:38:53.972Z,1.00
2022-08-08T16:42:00.918Z,1.00
2022-08-08T16:45:11.504Z,1.00
2022-08-08T16:48:32.048Z,1.00
2022-08-08T16:55:06.008Z,1.00
2022-08-08T16:55:33.785Z,1.00
2022-08-08T16:58:32.457Z,1.00
2022-08-08T17:01:39.716Z,1.00
2022-08-08T17:04:43.441Z,1.00
2022-08-08T17:07:51.522Z,1.00
2022-08-08T17:10:58.818Z,1.00
2022-08-08T17:14:19.077Z,1.00
2022-08-08T17:18:01.644Z,1.00
2022-08-08T17:20:46.828Z,1.00
2022-08-08T17:24:01.347Z,1.00
2022-08-08T17:27:07.552Z,1.00
2022-08-08T17:30:18.710Z,1.00
2022-08-08T17:34:53.191Z,1.00
2022-08-08T17:37:00.114Z,1.00
2022-08-08T17:40:13.120Z,1.00
2022-08-08T17:43:18.388Z,1.00
2022-08-08T17:46:38.657Z,1.00
2022-08-08T17:49:43.314Z,1.00
2022-08-08T17:52:47.684Z,1.00
2022-08-08T17:56:05.055Z,1.00
2022-08-08T17:59:11.267Z,1.00
2022-08-08T18:02:18.663Z,1.00
2022-08-08T18:05:27.538Z,1.00
2022-08-08T18:08:47.675Z,1.00
2022-08-08T18:12:01.954Z,2.20
2022-08-08T18:15:07.408Z,15.30
2022-08-08T18:18:29.372Z,10.50
2022-08-08T18:21:59.983Z,37.20
2022-08-08T18:24:59.057Z,49.70
2022-08-08T18:28:05.326Z,35.80
2022-08-08T18:31:08.842Z,45.80
2022-08-08T18:34:27.002Z,62.00
2022-08-08T18:37:34.792Z,69.50
2022-08-08T18:40:38.445Z,84.40
2022-08-08T18:43:43.569Z,91.80
2022-08-08T18:46:56.558Z,98.40
2022-08-08T18:50:02.845Z,99.90
2022-08-08T18:53:06.952Z,99.90
2022-08-08T18:56:21.749Z,99.90
2022-08-08T18:59:34.653Z,99.90
2022-08-08T19:02:54.739Z,99.90
2022-08-08T19:05:59.750Z,99.90
2022-08-08T19:09:03.971Z,99.90
2022-08-08T19:12:17.396Z,99.10
2022-08-08T19:15:26.190Z,99.40
2022-08-08T19:18:51.536Z,99.90
2022-08-08T19:22:01.357Z,99.90
2022-08-08T19:26:19.488Z,99.90
2022-08-08T19:28:36.476Z,99.90
2022-08-08T19:31:46.997Z,99.90
2022-08-08T19:34:51.891Z,99.90
2022-08-08T19:37:57.509Z,99.90
2022-08-08T19:41:03.601Z,99.90
2022-08-08T19:44:13.225Z,99.90
2022-08-08T19:47:34.002Z,99.90
2022-08-08T19:50:39.373Z,99.90
2022-08-08T19:53:52.125Z,99.90
2022-08-08T19:56:58.327Z,99.90
2022-08-08T20:00:02.459Z,99.90
2022-08-08T20:04:01.935Z,99.90
2022-08-08T20:06:41.048Z,99.90
2022-08-08T20:09:55.480Z,99.90
2022-08-08T20:14:12.443Z,99.90
2022-08-08T20:16:29.522Z,99.90
2022-08-08T20:19:42.337Z,99.90
2022-08-08T20:22:48.919Z,99.90
2022-08-08T20:25:58.313Z,99.90
2022-08-08T20:29:02.933Z,99.90
2022-08-08T20:32:13.290Z,99.90
2022-08-08T20:35:23.044Z,99.90
2022-08-08T20:38:37.598Z,99.90
2022-08-08T20:41:46.125Z,99.90
2022-08-08T20:44:55.568Z,99.90
2022-08-08T20:48:01.322Z,99.90
2022-08-08T20:51:06.618Z,99.90
2022-08-08T20:54:15.805Z,99.90
2022-08-08T20:57:31.495Z,99.90
2022-08-08T21:00:39.855Z,99.90
2022-08-08T21:03:55.924Z,99.90
2022-08-08T21:07:08.231Z,99.90
2022-08-08T21:10:20.732Z,99.90
2022-08-08T21:13:40.210Z,99.90
2022-08-08T21:16:44.919Z,99.90
2022-08-08T21:19:48.500Z,99.90
2022-08-08T21:22:53.625Z,99.90
2022-08-08T21:25:57.556Z,99.90
2022-08-08T21:29:02.491Z,99.90
2022-08-08T21:32:18.978Z,99.90
2022-08-08T21:36:16.578Z,99.90
2022-08-08T21:38:53.735Z,99.90
2022-08-08T21:41:59.198Z,99.90
2022-08-08T21:45:44.441Z,99.90
2022-08-08T21:48:30.334Z,99.90
2022-08-08T21:54:31.998Z,99.90
2022-08-08T21:56:06.574Z,99.90
2022-08-08T21:58:32.258Z,99.90
2022-08-08T22:01:42.566Z,99.90
2022-08-08T22:04:46.598Z,99.90
2022-08-08T22:07:50.106Z,99.90
2022-08-08T22:10:55.372Z,99.90
2022-08-08T22:13:58.904Z,99.90
2022-08-08T22:17:03.952Z,99.90
2022-08-08T22:20:10.982Z,99.90
2022-08-08T22:23:16.979Z,99.90
2022-08-08T22:26:29.949Z,99.90
2022-08-08T22:30:02.532Z,99.90
2022-08-08T22:32:58.486Z,99.90
2022-08-08T22:36:04.345Z,99.90
2022-08-08T22:39:19.088Z,99.90
2022-08-08T22:42:31.399Z,99.90
2022-08-08T22:45:35.965Z,99.90
2022-08-08T22:48:40.174Z,99.90
2022-08-08T22:51:47.038Z,99.90
2022-08-08T22:54:59.010Z,99.90
2022-08-08T22:58:10.509Z,99.90
2022-08-08T23:01:26.539Z,99.90
2022-08-08T23:04:37.508Z,99.90
2022-08-08T23:07:57.821Z,99.90
2022-08-08T23:11:06.048Z,99.90
2022-08-08T23:14:18.129Z,99.90
2022-08-08T23:17:22.405Z,99.90
2022-08-08T23:20:33.343Z,99.90
2022-08-08T23:23:48.713Z,99.90
2022-08-08T23:26:59.783Z,99.90
2022-08-08T23:30:06.062Z,99.90
2022-08-08T23:33:19.346Z,99.90
2022-08-08T23:36:26.342Z,99.90
2022-08-08T23:39:31.821Z,99.90
2022-08-08T23:42:35.792Z,99.90
2022-08-08T23:49:03.468Z,99.90
2022-08-08T23:49:20.449Z,99.90
2022-08-08T23:52:24.023Z,99.90
2022-08-08T23:55:29.178Z,99.90
2022-08-08T23:58:38.143Z,99.90
